Time;durP1;ratioP1;P1;durP2;ratioP2;P2;SDS_P1;SDS_P2;PMS_P1;PMS_P2;Temp;Humidity;BMP_temperature;BMP_pressure;BME280_temperature;BME280_humidity;BME280_pressure;Samples;Min_cycle;Max_cycle;Signal;HPM_P1;HPM_P2
2022/06/27 00:00:33;;;;;;;;;;;18.40;80.90;;;;;;5003958;28;19918;-86
2022/06/27 00:03:08;;;;;;;;;;;18.40;81.20;;;;;;5012603;28;19914;-85
2022/06/27 00:06:12;;;;;;;;;;;;;;;;;;;;;
2022/06/27 00:08:44;;;;;;;;;;;18.50;81.00;;;;;;5020916;28;19917;-85
2022/06/27 00:11:22;;;;;;;;;;;18.50;81.10;;;;;;5017994;28;19917;-85
2022/06/27 00:20:04;;;;;;;;;;;18.50;82.10;;;;;;5010159;28;20371;-85
2022/06/27 00:23:01;;;;;;;;;;;18.50;81.50;;;;;;4997656;28;19913;-85
2022/06/27 00:25:38;;;;;;;;;;;18.50;81.00;;;;;;5005195;28;19993;-86
2022/06/27 00:31:09;;;;;;;;;;;18.50;81.30;;;;;;5016588;28;19928;-85
2022/06/27 00:34:02;;;;;;;;;;;;;;;;;;;;;
2022/06/27 00:36:30;;;;;;;;;;;18.60;81.90;;;;;;5019040;28;19924;-85
2022/06/27 00:39:28;;;;;;;;;;;18.60;81.70;;;;;;4993834;28;19918;-85
2022/06/27 00:41:57;;;;;;;;;;;18.60;81.90;;;;;;4994029;28;19984;-85
2022/06/27 00:44:35;;;;;;;;;;;18.60;82.30;;;;;;5013185;28;20381;-85
2022/06/27 00:50:11;;;;;;;;;;;18.50;82.60;;;;;;5006390;28;19917;-85
2022/06/27 00:52:41;;;;;;;;;;;18.50;82.90;;;;;;5018011;28;19930;-85
2022/06/27 00:55:19;;;;;;;;;;;18.50;83.30;;;;;;5004158;28;20352;-85
2022/06/27 00:58:12;;;;;;;;;;;18.50;82.90;;;;;;4986595;28;19918;-85
2022/06/27 01:00:48;;;;;;;;;;;18.50;82.60;;;;;;5021882;28;20344;-84
2022/06/27 01:03:25;;;;;;;;;;;18.40;83.10;;;;;;4995463;28;19961;-85
2022/06/27 01:06:00;;;;;;;;;;;18.40;83.00;;;;;;5015660;28;19925;-85
2022/06/27 01:08:46;;;;;;;;;;;18.40;82.60;;;;;;5011766;28;19925;-85
2022/06/27 01:11:17;;;;;;;;;;;18.50;81.90;;;;;;4995151;28;19937;-85
2022/06/27 01:14:05;;;;;;;;;;;18.50;81.30;;;;;;4991112;28;19971;-85
2022/06/27 01:16:47;;;;;;;;;;;18.40;81.50;;;;;;5022764;28;19922;-86
2022/06/27 01:22:50;;;;;;;;;;;18.40;81.80;;;;;;4999479;28;20008;-85
2022/06/27 01:25:40;;;;;;;;;;;18.40;81.80;;;;;;4997758;28;19925;-86
2022/06/27 01:31:27;;;;;;;;;;;18.50;81.50;;;;;;5007753;28;19920;-85
2022/06/27 01:37:19;;;;;;;;;;;18.40;81.90;;;;;;4957071;28;19922;-85
2022/06/27 01:40:15;;;;;;;;;;;18.30;81.80;;;;;;4952538;28;19918;-86
2022/06/27 01:43:24;;;;;;;;;;;;;;;;;;;;;
2022/06/27 01:46:25;;;;;;;;;;;18.10;83.80;;;;;;5011069;28;19917;-86
2022/06/27 01:49:12;;;;;;;;;;;18.00;84.30;;;;;;5005058;28;19914;-86
2022/06/27 01:55:10;;;;;;;;;;;18.10;85.10;;;;;;5004487;28;19914;-85
2022/06/27 01:57:49;;;;;;;;;;;18.10;84.10;;;;;;5011504;28;20008;-85
2022/06/27 02:00:23;;;;;;;;;;;18.10;84.20;;;;;;5012280;28;20328;-86
2022/06/27 02:03:07;;;;;;;;;;;18.10;83.90;;;;;;5015880;28;19963;-85
2022/06/27 02:08:47;;;;;;;;;;;18.00;84.60;;;;;;5012996;28;19944;-85
2022/06/27 02:11:33;;;;;;;;;;;18.10;83.80;;;;;;5013056;28;20328;-85
2022/06/27 02:13:59;;;;;;;;;;;18.10;83.10;;;;;;5010326;28;19918;-86
2022/06/27 02:16:27;;;;;;;;;;;18.10;83.70;;;;;;4997054;28;19921;-86
2022/06/27 02:18:53;;;;;;;;;;;18.20;83.90;;;;;;4997198;28;19913;-86
2022/06/27 02:21:21;;;;;;;;;;;18.10;83.30;;;;;;5012014;28;19928;-85
2022/06/27 02:23:47;;;;;;;;;;;18.10;83.70;;;;;;4997553;28;20000;-86
2022/06/27 02:26:13;;;;;;;;;;;18.10;83.20;;;;;;5000935;28;19925;-86
2022/06/27 02:28:39;;;;;;;;;;;18.10;82.70;;;;;;5027475;28;19928;-86
2022/06/27 02:31:05;;;;;;;;;;;18.20;82.50;;;;;;5015181;28;19922;-86
2022/06/27 02:33:57;;;;;;;;;;;18.10;82.90;;;;;;5005278;28;19917;-86
2022/06/27 02:36:36;;;;;;;;;;;18.00;83.30;;;;;;5011268;28;19936;-86
2022/06/27 02:39:02;;;;;;;;;;;18.00;83.50;;;;;;5017434;28;19917;-86
2022/06/27 02:41:30;;;;;;;;;;;18.00;83.80;;;;;;5009786;28;20199;-86
2022/06/27 02:44:00;;;;;;;;;;;18.10;83.20;;;;;;5018550;28;19917;-87
2022/06/27 02:46:26;;;;;;;;;;;18.00;83.30;;;;;;5008755;28;19917;-86
2022/06/27 02:48:52;;;;;;;;;;;17.90;83.20;;;;;;4999016;28;20005;-86
2022/06/27 02:51:19;;;;;;;;;;;17.80;83.80;;;;;;5015416;28;19936;-86
2022/06/27 02:54:05;;;;;;;;;;;17.80;84.10;;;;;;5012102;28;19914;-86
2022/06/27 02:56:31;;;;;;;;;;;17.80;84.00;;;;;;4997146;28;19924;-87
2022/06/27 02:59:00;;;;;;;;;;;17.60;84.30;;;;;;4986862;28;19944;-87
2022/06/27 03:01:26;;;;;;;;;;;17.60;85.10;;;;;;5008844;28;20020;-86
2022/06/27 03:03:52;;;;;;;;;;;17.80;84.60;;;;;;4992528;28;19917;-87
2022/06/27 03:06:18;;;;;;;;;;;17.60;84.70;;;;;;4996432;28;19924;-86
2022/06/27 03:08:47;;;;;;;;;;;17.60;85.20;;;;;;5009556;28;19913;-86
2022/06/27 03:11:17;;;;;;;;;;;17.60;84.60;;;;;;5013396;28;20004;-86
2022/06/27 03:13:43;;;;;;;;;;;17.60;84.30;;;;;;5013717;28;19913;-86
2022/06/27 03:16:08;;;;;;;;;;;17.70;84.70;;;;;;5011695;28;19925;-86
2022/06/27 03:18:34;;;;;;;;;;;17.60;85.10;;;;;;4994676;28;19933;-86
2022/06/27 03:21:00;;;;;;;;;;;17.50;85.60;;;;;;4992104;28;19961;-87
2022/06/27 03:23:25;;;;;;;;;;;17.50;85.50;;;;;;5001678;28;19964;-87
2022/06/27 03:25:51;;;;;;;;;;;17.50;85.90;;;;;;4993627;28;19917;-86
2022/06/27 03:28:16;;;;;;;;;;;17.60;85.50;;;;;;5008518;28;20003;-86
2022/06/27 03:30:42;;;;;;;;;;;17.60;85.60;;;;;;4988690;28;19921;-86
2022/06/27 03:33:13;;;;;;;;;;;17.60;85.10;;;;;;4988105;28;20392;-86
2022/06/27 03:35:38;;;;;;;;;;;17.70;85.30;;;;;;4996755;28;19929;-87
2022/06/27 03:38:04;;;;;;;;;;;17.70;84.60;;;;;;4995970;28;19918;-86
2022/06/27 03:40:30;;;;;;;;;;;17.70;84.70;;;;;;5010978;28;20410;-86
2022/06/27 03:42:55;;;;;;;;;;;17.80;85.00;;;;;;4993153;28;19917;-86
2022/06/27 03:45:20;;;;;;;;;;;17.80;84.90;;;;;;5014953;28;20328;-86
2022/06/27 03:47:51;;;;;;;;;;;17.80;84.80;;;;;;5027148;28;19983;-87
2022/06/27 03:50:17;;;;;;;;;;;17.80;84.70;;;;;;5008761;28;20335;-86
2022/06/27 03:52:43;;;;;;;;;;;17.80;84.70;;;;;;4995678;28;19920;-86
2022/06/27 03:55:09;;;;;;;;;;;17.90;84.70;;;;;;5013507;28;20012;-86
2022/06/27 03:57:35;;;;;;;;;;;18.00;84.70;;;;;;4992159;28;19933;-87
2022/06/27 04:00:01;;;;;;;;;;;18.00;83.70;;;;;;4999314;28;19984;-86
2022/06/27 04:02:27;;;;;;;;;;;18.00;83.60;;;;;;5009215;28;19975;-86
2022/06/27 04:04:53;;;;;;;;;;;18.00;83.60;;;;;;4995286;28;19937;-87
2022/06/27 04:07:18;;;;;;;;;;;18.00;84.00;;;;;;4995861;28;19913;-85
2022/06/27 04:09:44;;;;;;;;;;;18.00;84.10;;;;;;5012231;28;19921;-86
2022/06/27 04:12:09;;;;;;;;;;;18.00;84.30;;;;;;5001521;28;20052;-86
2022/06/27 04:14:35;;;;;;;;;;;18.00;84.30;;;;;;4996575;28;19921;-86
2022/06/27 04:17:00;;;;;;;;;;;18.10;83.60;;;;;;4992084;28;20016;-85
2022/06/27 04:19:26;;;;;;;;;;;18.10;83.70;;;;;;5008011;28;19921;-87
2022/06/27 04:21:51;;;;;;;;;;;18.10;84.00;;;;;;4989151;28;19914;-86
2022/06/27 04:24:17;;;;;;;;;;;18.10;84.10;;;;;;4994883;28;19952;-86
2022/06/27 04:26:42;;;;;;;;;;;18.10;83.90;;;;;;5014684;28;19924;-86
2022/06/27 04:29:07;;;;;;;;;;;18.10;83.70;;;;;;5007159;28;19917;-86
2022/06/27 04:31:33;;;;;;;;;;;18.10;83.30;;;;;;4993025;28;20353;-85
2022/06/27 04:33:59;;;;;;;;;;;18.00;82.70;;;;;;5003220;28;19925;-86
2022/06/27 04:36:25;;;;;;;;;;;18.00;83.60;;;;;;5004883;28;20381;-85
2022/06/27 04:38:51;;;;;;;;;;;18.00;83.30;;;;;;4997269;28;19918;-86
2022/06/27 04:41:16;;;;;;;;;;;18.10;83.40;;;;;;4998938;28;19921;-85
2022/06/27 04:43:42;;;;;;;;;;;18.00;83.90;;;;;;5014358;28;19917;-86
2022/06/27 04:46:07;;;;;;;;;;;18.10;83.20;;;;;;4996601;28;19917;-86
2022/06/27 04:48:34;;;;;;;;;;;18.10;82.70;;;;;;4995955;28;20403;-86
2022/06/27 04:50:59;;;;;;;;;;;18.00;83.10;;;;;;5011516;28;19939;-85
2022/06/27 04:53:25;;;;;;;;;;;18.00;83.60;;;;;;5014178;28;19929;-86
2022/06/27 04:55:51;;;;;;;;;;;18.00;83.20;;;;;;4998941;28;20020;-85
2022/06/27 04:58:17;;;;;;;;;;;18.10;83.30;;;;;;4994222;28;19929;-86
2022/06/27 05:00:43;;;;;;;;;;;18.10;83.70;;;;;;5006020;28;20578;-85
2022/06/27 05:03:09;;;;;;;;;;;18.10;83.90;;;;;;5013639;23;19972;-85
2022/06/27 05:05:35;;;;;;;;;;;18.00;83.60;;;;;;4999237;28;20020;-84
2022/06/27 05:08:01;;;;;;;;;;;18.10;83.20;;;;;;5017068;28;20397;-86
2022/06/27 05:10:27;;;;;;;;;;;18.10;83.90;;;;;;4993084;28;19965;-84
2022/06/27 05:12:53;;;;;;;;;;;18.10;83.80;;;;;;4991213;28;19913;-84
2022/06/27 05:15:18;;;;;;;;;;;18.10;84.20;;;;;;4991582;28;20009;-85
2022/06/27 05:17:44;;;;;;;;;;;18.10;83.90;;;;;;4988494;28;19921;-80
2022/06/27 05:20:09;;;;;;;;;;;18.00;84.50;;;;;;4995703;28;19913;-80
2022/06/27 05:22:35;;;;;;;;;;;18.10;84.20;;;;;;5021470;28;19977;-83
2022/06/27 05:25:01;;;;;;;;;;;18.10;84.20;;;;;;5000451;28;19922;-83
2022/06/27 05:27:26;;;;;;;;;;;18.00;84.60;;;;;;5010293;28;19917;-82
2022/06/27 05:29:52;;;;;;;;;;;17.90;84.90;;;;;;5022488;28;19921;-84
2022/06/27 05:32:17;;;;;;;;;;;17.70;85.60;;;;;;4998643;28;19914;-83
2022/06/27 05:34:43;;;;;;;;;;;17.80;85.10;;;;;;5015982;28;19921;-84
2022/06/27 05:37:08;;;;;;;;;;;17.70;86.00;;;;;;4993125;28;19921;-79
2022/06/27 05:39:34;;;;;;;;;;;17.90;85.10;;;;;;5022109;28;20008;-81
2022/06/27 05:42:00;;;;;;;;;;;17.80;85.60;;;;;;5012729;28;19909;-83
2022/06/27 05:44:27;;;;;;;;;;;17.80;85.70;;;;;;5011122;28;19917;-82
2022/06/27 05:46:55;;;;;;;;;;;18.00;85.30;;;;;;5000759;28;19925;-83
2022/06/27 05:49:21;;;;;;;;;;;18.10;84.80;;;;;;4990837;28;19924;-79
2022/06/27 05:51:46;;;;;;;;;;;18.20;84.40;;;;;;5010148;28;20269;-81
2022/06/27 05:54:12;;;;;;;;;;;18.30;84.70;;;;;;4992279;28;19956;-81
2022/06/27 05:56:39;;;;;;;;;;;18.50;84.00;;;;;;5010068;28;19928;-76
2022/06/27 05:59:06;;;;;;;;;;;18.80;83.50;;;;;;4994607;28;19940;-81
2022/06/27 06:01:31;;;;;;;;;;;19.00;83.20;;;;;;4998723;28;19956;-83
2022/06/27 06:03:57;;;;;;;;;;;19.00;82.50;;;;;;4992283;28;19972;-82
2022/06/27 06:06:24;;;;;;;;;;;19.00;81.70;;;;;;5011183;28;19924;-82
2022/06/27 06:08:50;;;;;;;;;;;19.10;80.80;;;;;;4998525;28;19971;-82
2022/06/27 06:11:15;;;;;;;;;;;19.10;81.00;;;;;;5013980;28;19902;-83
2022/06/27 06:13:43;;;;;;;;;;;19.10;81.40;;;;;;5014095;28;19921;-83
2022/06/27 06:16:10;;;;;;;;;;;19.00;81.40;;;;;;5006554;28;19919;-84
2022/06/27 06:18:36;;;;;;;;;;;19.00;81.90;;;;;;5024179;28;19917;-84
2022/06/27 06:21:01;;;;;;;;;;;18.80;82.20;;;;;;4997092;28;20360;-83
2022/06/27 06:23:27;;;;;;;;;;;18.90;82.30;;;;;;5009585;28;19917;-83
2022/06/27 06:25:53;;;;;;;;;;;18.80;82.00;;;;;;4999296;28;19941;-84
2022/06/27 06:28:18;;;;;;;;;;;18.60;82.80;;;;;;4996123;28;20292;-84
2022/06/27 06:30:44;;;;;;;;;;;18.70;82.50;;;;;;5017369;28;19920;-84
2022/06/27 06:33:09;;;;;;;;;;;18.60;83.00;;;;;;4999931;28;19913;-84
2022/06/27 06:35:35;;;;;;;;;;;18.60;82.90;;;;;;5005412;28;19963;-83
2022/06/27 06:38:01;;;;;;;;;;;18.60;83.50;;;;;;4997350;28;19943;-84
2022/06/27 06:40:27;;;;;;;;;;;18.60;82.90;;;;;;4995649;28;19940;-83
2022/06/27 06:42:53;;;;;;;;;;;18.60;83.30;;;;;;4996783;28;19917;-83
2022/06/27 06:45:19;;;;;;;;;;;18.60;83.50;;;;;;5016508;28;19923;-84
2022/06/27 06:47:46;;;;;;;;;;;18.70;83.20;;;;;;5013564;28;19913;-83
2022/06/27 06:50:15;;;;;;;;;;;18.80;83.50;;;;;;4997374;28;19914;-83
2022/06/27 06:52:41;;;;;;;;;;;18.80;83.30;;;;;;5000280;28;20393;-84
2022/06/27 06:55:07;;;;;;;;;;;19.00;82.40;;;;;;5022877;28;19913;-83
2022/06/27 06:57:33;;;;;;;;;;;19.00;82.50;;;;;;4993551;28;19913;-83
2022/06/27 06:59:58;;;;;;;;;;;19.00;82.30;;;;;;4995607;28;19921;-83
2022/06/27 07:02:25;;;;;;;;;;;18.90;82.10;;;;;;4995814;28;19989;-83
2022/06/27 07:04:52;;;;;;;;;;;19.00;82.20;;;;;;5010155;28;19922;-84
2022/06/27 07:07:19;;;;;;;;;;;18.90;82.70;;;;;;5007944;28;19984;-84
2022/06/27 07:09:44;;;;;;;;;;;19.00;83.20;;;;;;4994665;28;19920;-83
2022/06/27 07:12:10;;;;;;;;;;;19.00;83.20;;;;;;5004166;28;19917;-80
2022/06/27 07:14:35;;;;;;;;;;;19.10;82.60;;;;;;4998058;28;19913;-82
2022/06/27 07:17:01;;;;;;;;;;;19.10;82.40;;;;;;5002865;28;20380;-84
2022/06/27 07:19:29;;;;;;;;;;;19.20;81.60;;;;;;5001420;28;19921;-84
2022/06/27 07:21:54;;;;;;;;;;;19.00;82.20;;;;;;4996780;28;19917;-83
2022/06/27 07:24:20;;;;;;;;;;;18.90;82.80;;;;;;5006411;28;20001;-85
2022/06/27 07:26:45;;;;;;;;;;;19.00;83.50;;;;;;4999969;28;19917;-84
2022/06/27 07:29:11;;;;;;;;;;;19.00;83.40;;;;;;4995383;28;19914;-85
2022/06/27 07:31:37;;;;;;;;;;;19.10;82.00;;;;;;4996368;28;19948;-84
2022/06/27 07:34:07;;;;;;;;;;;19.00;82.00;;;;;;4997659;28;19914;-84
2022/06/27 07:36:46;;;;;;;;;;;19.00;82.10;;;;;;4996303;28;19917;-86
2022/06/27 07:39:12;;;;;;;;;;;19.00;82.60;;;;;;5000786;28;20243;-84
2022/06/27 07:41:37;;;;;;;;;;;19.00;82.60;;;;;;4996456;28;19921;-85
2022/06/27 07:44:03;;;;;;;;;;;19.00;82.80;;;;;;4993051;28;19919;-85
2022/06/27 07:46:31;;;;;;;;;;;19.00;82.80;;;;;;5015028;28;19918;-86
2022/06/27 07:48:57;;;;;;;;;;;19.00;83.40;;;;;;5019951;28;19921;-85
2022/06/27 07:51:22;;;;;;;;;;;18.90;83.20;;;;;;5025096;28;19905;-86
2022/06/27 07:53:48;;;;;;;;;;;18.90;83.00;;;;;;5010894;28;19940;-86
2022/06/27 07:56:15;;;;;;;;;;;19.00;82.80;;;;;;5007036;28;19914;-85
2022/06/27 07:58:41;;;;;;;;;;;18.90;83.50;;;;;;5016158;28;19920;-86
2022/06/27 08:01:11;;;;;;;;;;;18.90;83.40;;;;;;5004361;28;19910;-86
2022/06/27 08:03:40;;;;;;;;;;;18.90;83.80;;;;;;5023825;28;20018;-87
2022/06/27 08:06:10;;;;;;;;;;;19.00;83.80;;;;;;5030411;28;19925;-87
2022/06/27 08:08:37;;;;;;;;;;;19.00;83.80;;;;;;5004935;28;19928;-87
2022/06/27 08:11:04;;;;;;;;;;;19.10;82.90;;;;;;4993837;28;19917;-87
2022/06/27 08:13:31;;;;;;;;;;;19.00;82.90;;;;;;5005844;28;19913;-87
2022/06/27 08:15:57;;;;;;;;;;;19.00;82.60;;;;;;5020215;28;19919;-85
2022/06/27 08:18:23;;;;;;;;;;;18.90;83.30;;;;;;5019534;28;20000;-86
2022/06/27 08:20:48;;;;;;;;;;;18.90;83.40;;;;;;5008907;28;19964;-86
2022/06/27 08:23:15;;;;;;;;;;;19.00;82.80;;;;;;5000156;28;19929;-86
2022/06/27 08:25:41;;;;;;;;;;;19.00;82.90;;;;;;4998813;28;19917;-86
2022/06/27 08:28:08;;;;;;;;;;;19.10;82.60;;;;;;5013954;28;20024;-87
2022/06/27 08:30:34;;;;;;;;;;;19.30;81.60;;;;;;5016269;28;19960;-83
2022/06/27 08:33:01;;;;;;;;;;;19.30;82.30;;;;;;4989090;28;20372;-84
2022/06/27 08:35:26;;;;;;;;;;;19.30;82.30;;;;;;4996825;28;19913;-86
2022/06/27 08:37:52;;;;;;;;;;;19.30;82.70;;;;;;4997331;28;19972;-87
2022/06/27 08:40:18;;;;;;;;;;;19.40;82.40;;;;;;4995723;28;20375;-83
2022/06/27 08:42:44;;;;;;;;;;;19.60;81.70;;;;;;4995314;28;19921;-86
2022/06/27 08:45:16;;;;;;;;;;;19.60;81.50;;;;;;5009242;28;19917;-84
2022/06/27 08:47:42;;;;;;;;;;;19.70;80.90;;;;;;4998653;28;19913;-84
2022/06/27 08:50:08;;;;;;;;;;;19.70;80.40;;;;;;4995662;28;19959;-86
2022/06/27 08:52:39;;;;;;;;;;;19.60;80.80;;;;;;5012123;28;20008;-84
2022/06/27 08:55:11;;;;;;;;;;;19.60;80.90;;;;;;4996152;28;20099;-84
2022/06/27 08:57:39;;;;;;;;;;;19.50;81.20;;;;;;4994109;28;19967;-84
2022/06/27 09:00:06;;;;;;;;;;;19.60;81.50;;;;;;5003842;28;19914;-85
2022/06/27 09:02:42;;;;;;;;;;;19.60;81.00;;;;;;4996233;28;20020;-90
2022/06/27 09:05:21;;;;;;;;;;;19.60;81.20;;;;;;4997383;28;20067;-87
2022/06/27 09:07:48;;;;;;;;;;;19.60;81.20;;;;;;4995821;28;19941;-87
2022/06/27 09:10:27;;;;;;;;;;;19.60;80.80;;;;;;5010906;28;19913;-82
2022/06/27 09:12:55;;;;;;;;;;;19.60;81.10;;;;;;5008161;28;19918;-85
2022/06/27 09:15:20;;;;;;;;;;;19.60;81.40;;;;;;5015424;28;19945;-86
2022/06/27 09:17:59;;;;;;;;;;;19.60;81.50;;;;;;5012822;28;19922;-87
2022/06/27 09:20:25;;;;;;;;;;;19.60;81.60;;;;;;4994549;28;19913;-88
2022/06/27 09:23:00;;;;;;;;;;;19.70;81.20;;;;;;5000464;28;19936;-87
2022/06/27 09:25:26;;;;;;;;;;;19.70;81.30;;;;;;4998293;28;19964;-87
2022/06/27 09:27:52;;;;;;;;;;;19.50;81.40;;;;;;4996998;28;20348;-89
2022/06/27 09:30:18;;;;;;;;;;;19.60;81.50;;;;;;4996144;28;19973;-86
2022/06/27 09:32:43;;;;;;;;;;;19.50;81.90;;;;;;5009739;28;19916;-86
2022/06/27 09:35:23;;;;;;;;;;;19.60;81.90;;;;;;5027849;28;19913;-85
2022/06/27 09:37:53;;;;;;;;;;;19.70;81.60;;;;;;5035100;28;19905;-83
2022/06/27 09:40:21;;;;;;;;;;;19.70;81.80;;;;;;5027620;28;19960;-86
2022/06/27 09:42:48;;;;;;;;;;;19.80;81.60;;;;;;4997132;28;19913;-83
2022/06/27 09:45:14;;;;;;;;;;;19.80;80.80;;;;;;4992549;28;19968;-83
2022/06/27 09:47:41;;;;;;;;;;;19.70;80.80;;;;;;5013448;28;19913;-83
2022/06/27 09:50:08;;;;;;;;;;;19.60;80.70;;;;;;4999564;28;19913;-85
2022/06/27 09:52:34;;;;;;;;;;;19.60;80.40;;;;;;5025820;28;19901;-84
2022/06/27 09:55:00;;;;;;;;;;;19.70;80.70;;;;;;5010392;28;19921;-84
2022/06/27 09:57:27;;;;;;;;;;;19.80;80.20;;;;;;5016802;28;19910;-87
2022/06/27 09:59:53;;;;;;;;;;;19.90;80.20;;;;;;4990840;28;19928;-85
2022/06/27 10:02:22;;;;;;;;;;;20.00;79.90;;;;;;4982889;28;19914;-84
2022/06/27 10:04:48;;;;;;;;;;;20.00;79.90;;;;;;5006577;28;19925;-85
2022/06/27 10:07:15;;;;;;;;;;;20.10;79.80;;;;;;5009388;28;19929;-85
2022/06/27 10:09:41;;;;;;;;;;;20.30;79.00;;;;;;5023975;28;19913;-83
2022/06/27 10:12:27;;;;;;;;;;;20.30;78.80;;;;;;5017856;28;19925;-83
2022/06/27 10:15:04;;;;;;;;;;;20.40;78.80;;;;;;4987966;28;20357;-84
2022/06/27 10:17:32;;;;;;;;;;;20.30;78.50;;;;;;5011888;28;20007;-83
2022/06/27 10:20:05;;;;;;;;;;;20.40;78.30;;;;;;5004601;28;19914;-83
2022/06/27 10:22:31;;;;;;;;;;;20.50;78.20;;;;;;5003752;28;19976;-83
2022/06/27 10:25:16;;;;;;;;;;;20.50;77.60;;;;;;4997213;28;19957;-84
2022/06/27 10:27:42;;;;;;;;;;;20.50;77.60;;;;;;4981639;28;19993;-85
2022/06/27 10:30:35;;;;;;;;;;;20.60;77.80;;;;;;5012670;28;19937;-84
2022/06/27 10:33:11;;;;;;;;;;;20.60;77.70;;;;;;5002330;28;20008;-85
2022/06/27 10:36:02;;;;;;;;;;;20.80;77.60;;;;;;5002872;28;20008;-83
2022/06/27 10:38:32;;;;;;;;;;;21.00;76.10;;;;;;5013850;28;19997;-84
2022/06/27 10:41:02;;;;;;;;;;;21.20;75.70;;;;;;5014387;28;19917;-84
2022/06/27 10:43:37;;;;;;;;;;;21.50;75.50;;;;;;4997626;28;19917;-84
2022/06/27 10:46:08;;;;;;;;;;;21.60;74.30;;;;;;5014252;28;19917;-84
2022/06/27 10:48:35;;;;;;;;;;;21.80;73.60;;;;;;5004421;28;20386;-84
2022/06/27 10:51:35;;;;;;;;;;;21.90;73.10;;;;;;5013313;28;19914;-82
2022/06/27 10:54:04;;;;;;;;;;;22.00;72.90;;;;;;4921449;29;20014;-81
2022/06/27 10:56:29;;;;;;;;;;;22.00;72.40;;;;;;5004851;28;19964;-80
2022/06/27 10:59:01;;;;;;;;;;;21.90;72.70;;;;;;5004625;28;19917;-81
2022/06/27 11:01:26;;;;;;;;;;;21.90;72.70;;;;;;4999734;28;19972;-82
2022/06/27 11:03:52;;;;;;;;;;;21.70;72.90;;;;;;5017692;23;19960;-89
2022/06/27 11:06:18;;;;;;;;;;;21.70;71.70;;;;;;4988149;28;19990;-88
2022/06/27 11:08:44;;;;;;;;;;;21.60;70.40;;;;;;4987771;28;19967;-89
2022/06/27 11:11:20;;;;;;;;;;;21.60;70.70;;;;;;4998770;28;19989;-88
2022/06/27 11:13:49;;;;;;;;;;;21.60;69.70;;;;;;4982175;28;19914;-90
2022/06/27 11:16:15;;;;;;;;;;;21.50;69.90;;;;;;5001075;28;19945;-87
2022/06/27 11:18:53;;;;;;;;;;;21.60;70.30;;;;;;4998045;28;19958;-88
2022/06/27 11:21:24;;;;;;;;;;;21.50;69.10;;;;;;5002460;28;19924;-89
2022/06/27 11:23:55;;;;;;;;;;;21.40;69.90;;;;;;5000903;28;19917;-88
2022/06/27 11:26:22;;;;;;;;;;;21.30;70.60;;;;;;5003057;28;19918;-86
2022/06/27 11:34:16;;;;;;;;;;;21.20;71.70;;;;;;5022417;28;20312;-86
2022/06/27 11:36:42;;;;;;;;;;;21.30;71.30;;;;;;5000913;28;19913;-86
2022/06/27 11:39:07;;;;;;;;;;;21.30;69.50;;;;;;5005154;28;19913;-87
2022/06/27 11:41:37;;;;;;;;;;;21.30;69.90;;;;;;5003931;28;20378;-86
2022/06/27 11:44:10;;;;;;;;;;;21.50;69.10;;;;;;5027344;28;19909;-86
2022/06/27 11:46:39;;;;;;;;;;;21.70;68.30;;;;;;5006745;28;20360;-87
2022/06/27 11:49:09;;;;;;;;;;;21.60;68.30;;;;;;5004069;28;20368;-86
2022/06/27 11:51:36;;;;;;;;;;;21.70;68.30;;;;;;5036768;28;19921;-86
2022/06/27 11:54:09;;;;;;;;;;;21.60;69.10;;;;;;5015921;28;19914;-86
2022/06/27 11:56:36;;;;;;;;;;;21.70;68.90;;;;;;4999219;28;19921;-86
2022/06/27 11:59:03;;;;;;;;;;;21.80;69.10;;;;;;5010664;28;19912;-84
2022/06/27 12:01:29;;;;;;;;;;;21.80;69.60;;;;;;5004099;28;20300;-85
2022/06/27 12:04:13;;;;;;;;;;;21.60;70.30;;;;;;5040578;28;19916;-88
2022/06/27 12:06:42;;;;;;;;;;;21.60;69.40;;;;;;5011171;28;19940;-87
2022/06/27 12:09:08;;;;;;;;;;;21.40;69.00;;;;;;5010722;28;20007;-87
2022/06/27 12:11:34;;;;;;;;;;;21.40;69.10;;;;;;5015127;28;19967;-87
2022/06/27 12:14:00;;;;;;;;;;;21.50;69.60;;;;;;5036449;28;19915;-87
2022/06/27 12:16:26;;;;;;;;;;;21.50;70.90;;;;;;5013309;28;20359;-87
2022/06/27 12:18:52;;;;;;;;;;;21.30;72.30;;;;;;5013494;28;19955;-87
2022/06/27 12:21:22;;;;;;;;;;;21.10;72.90;;;;;;5003473;28;19967;-87
2022/06/27 12:23:48;;;;;;;;;;;21.00;74.60;;;;;;5026490;28;19975;-89
2022/06/27 12:26:14;;;;;;;;;;;21.00;74.50;;;;;;5014662;28;19929;-88
2022/06/27 12:28:42;;;;;;;;;;;21.10;74.70;;;;;;4997977;28;20384;-87
2022/06/27 12:31:08;;;;;;;;;;;21.50;74.30;;;;;;5003936;28;20387;-87
2022/06/27 12:33:33;;;;;;;;;;;21.90;73.00;;;;;;5010418;28;19949;-88
2022/06/27 12:35:59;;;;;;;;;;;22.00;71.90;;;;;;5015290;28;19909;-88
2022/06/27 12:38:25;;;;;;;;;;;22.10;72.40;;;;;;5012637;28;19913;-87
2022/06/27 12:41:11;;;;;;;;;;;22.00;70.80;;;;;;5013973;28;19910;-87
2022/06/27 12:43:37;;;;;;;;;;;22.00;70.30;;;;;;5026974;28;19913;-87
2022/06/27 12:46:03;;;;;;;;;;;22.10;69.70;;;;;;5007009;28;19976;-87
2022/06/27 12:48:28;;;;;;;;;;;22.40;69.80;;;;;;5002860;28;20024;-87
2022/06/27 12:50:54;;;;;;;;;;;22.60;69.30;;;;;;4998943;28;19913;-87
2022/06/27 12:53:19;;;;;;;;;;;22.60;67.40;;;;;;5028833;28;19917;-88
2022/06/27 12:55:45;;;;;;;;;;;22.40;68.20;;;;;;5013600;28;19930;-88
2022/06/27 12:58:10;;;;;;;;;;;22.50;67.60;;;;;;5017108;28;19921;-87
2022/06/27 13:00:36;;;;;;;;;;;22.60;66.80;;;;;;5040369;28;19912;-87
2022/06/27 13:03:01;;;;;;;;;;;22.70;65.90;;;;;;5030419;28;20354;-88
2022/06/27 13:05:28;;;;;;;;;;;22.80;65.30;;;;;;5027797;28;19917;-88
2022/06/27 13:07:54;;;;;;;;;;;22.90;65.50;;;;;;5004550;28;19963;-87
2022/06/27 13:10:19;;;;;;;;;;;23.00;65.00;;;;;;5001696;28;20004;-87
2022/06/27 13:12:46;;;;;;;;;;;23.00;63.60;;;;;;5021548;28;19956;-87
2022/06/27 13:15:11;;;;;;;;;;;23.10;64.10;;;;;;5037610;28;19913;-88
2022/06/27 13:17:36;;;;;;;;;;;22.90;64.20;;;;;;5014869;28;19919;-88
2022/06/27 13:20:02;;;;;;;;;;;23.00;64.50;;;;;;5030776;28;19995;-87
2022/06/27 13:22:27;;;;;;;;;;;22.80;64.80;;;;;;5032164;28;20115;-88
2022/06/27 13:24:53;;;;;;;;;;;22.60;64.30;;;;;;5030263;28;20361;-88
2022/06/27 13:27:18;;;;;;;;;;;22.50;65.70;;;;;;5016075;28;19925;-87
2022/06/27 13:29:44;;;;;;;;;;;22.30;66.10;;;;;;4997150;28;19920;-87
2022/06/27 13:32:09;;;;;;;;;;;22.10;67.20;;;;;;4999420;28;19918;-87
2022/06/27 13:34:35;;;;;;;;;;;22.10;68.00;;;;;;5013036;28;19999;-87
2022/06/27 13:37:00;;;;;;;;;;;22.00;67.90;;;;;;5028284;28;19920;-87
2022/06/27 13:39:26;;;;;;;;;;;22.00;67.80;;;;;;5046234;28;19960;-90
2022/06/27 13:41:52;;;;;;;;;;;22.10;67.60;;;;;;5034286;28;19917;-87
2022/06/27 13:44:17;;;;;;;;;;;22.10;66.40;;;;;;5015554;28;19913;-88
2022/06/27 13:46:43;;;;;;;;;;;22.10;66.60;;;;;;5023413;28;20012;-87
2022/06/27 13:49:08;;;;;;;;;;;22.10;66.10;;;;;;5016456;28;19913;-87
2022/06/27 13:51:34;;;;;;;;;;;22.20;66.20;;;;;;5001439;28;19920;-88
2022/06/27 13:53:59;;;;;;;;;;;22.50;65.50;;;;;;5003049;28;19914;-87
2022/06/27 13:56:25;;;;;;;;;;;22.70;64.70;;;;;;5005793;28;20351;-86
2022/06/27 13:58:50;;;;;;;;;;;22.80;64.80;;;;;;5013877;28;19909;-87
2022/06/27 14:01:15;;;;;;;;;;;22.90;65.10;;;;;;5006376;28;20384;-85
2022/06/27 14:03:41;;;;;;;;;;;23.00;64.30;;;;;;5010293;28;20344;-84
2022/06/27 14:08:50;;;;;;;;;;;23.40;63.40;;;;;;5039304;28;19924;-86
2022/06/27 14:11:16;;;;;;;;;;;23.50;62.10;;;;;;5010891;28;19996;-86
2022/06/27 14:13:41;;;;;;;;;;;23.50;63.20;;;;;;5009034;28;19914;-85
2022/06/27 14:16:07;;;;;;;;;;;23.60;62.60;;;;;;5023357;28;19909;-87
2022/06/27 14:18:33;;;;;;;;;;;23.60;62.30;;;;;;5014614;28;19913;-85
2022/06/27 14:20:58;;;;;;;;;;;23.80;61.40;;;;;;5014926;28;20422;-85
2022/06/27 14:23:24;;;;;;;;;;;23.80;62.00;;;;;;5022950;28;19917;-84
2022/06/27 14:25:50;;;;;;;;;;;23.90;61.90;;;;;;5020219;28;19925;-85
2022/06/27 14:28:16;;;;;;;;;;;24.00;61.40;;;;;;5038547;28;20510;-87
2022/06/27 14:30:41;;;;;;;;;;;23.90;61.70;;;;;;5004726;28;19933;-87
2022/06/27 14:33:06;;;;;;;;;;;24.00;60.80;;;;;;5004901;28;19920;-84
2022/06/27 14:35:32;;;;;;;;;;;23.80;60.80;;;;;;5031273;28;19990;-84
2022/06/27 14:37:57;;;;;;;;;;;23.60;60.30;;;;;;5024087;28;20015;-84
2022/06/27 14:40:23;;;;;;;;;;;23.50;60.60;;;;;;5028683;28;20338;-85
2022/06/27 14:42:48;;;;;;;;;;;23.50;60.80;;;;;;5022681;28;20016;-85
2022/06/27 14:45:14;;;;;;;;;;;23.50;61.00;;;;;;5007602;28;19916;-86
2022/06/27 14:47:39;;;;;;;;;;;23.30;62.10;;;;;;5022712;28;20351;-85
2022/06/27 14:50:05;;;;;;;;;;;23.40;62.60;;;;;;5025188;28;19917;-85
2022/06/27 14:52:30;;;;;;;;;;;23.50;62.40;;;;;;5017888;28;19913;-85
2022/06/27 14:54:55;;;;;;;;;;;23.40;63.30;;;;;;5014643;28;20295;-86
2022/06/27 14:57:21;;;;;;;;;;;23.30;64.30;;;;;;5030533;28;20273;-85
2022/06/27 14:59:46;;;;;;;;;;;23.50;64.20;;;;;;5008758;28;20018;-85
2022/06/27 15:02:12;;;;;;;;;;;23.50;64.60;;;;;;4995074;28;19918;-86
2022/06/27 15:04:37;;;;;;;;;;;23.40;64.60;;;;;;5032049;28;20346;-85
2022/06/27 15:07:03;;;;;;;;;;;23.40;64.40;;;;;;5004813;28;20244;-86